Smyrna Airport Smyrna US
ICAO: KMQY
IATA: MQY
Category: Medium
Scheduled Services: No

Elevation: 543 ft
TransAlt. 18000 ft.

Airport Communications:
NASHVILLE APP/DEP:128.45
ASOS:119.125
CLNC DEL:121.4
CTAF:118.5
GND:121.4
ARNG OPS:41.5
TWR:118.5
UNICOM:122.95

KMQY Zoom In..

If you have problems with the map follow the link
https://www.worldairports.se/pages/airport.php?
ICAO=KMQY

Runways:

(A) RW 01 length 5546 ft width 100 ft
---- / hdg 6

(B) RW 14 length 8048 ft width 150 ft
---- / hdg 141

(C) RW 19 length 5546 ft width 100 ft
---- / hdg 186

(D) RW 32 length 8048 ft width 150 ft
ILS 111.10 / hdg 321

Location; KMQY
Day. 26 / Time. 01.56 Zulu
* Altimeter: 30.15
* Temperature: 03° c. 37.4°f.
* Wind from: 250° Speed 04 kn.
Dewpoint: -01° c.
Visibility: 10 Statute Miles.
Clouds: Overcast 2600 ft.

KMQY 260156Z AUTO 25004KT 10SM OVC026 03/M01 A3015 RMK AO2 SLP220 P0001 T00281011


Wind From 250°
Speed 04 kn.

 
 
jpsmedia worldairports.se 2020   terms of use